sensor_id;sensor_type;location;lat;lon;timestamp;P1;durP1;ratioP1;P2;durP2;ratioP2
17181;SDS011;8706;48.254;16.422;2024-03-23T00:52:44;3.97;;;3.67;;
17181;SDS011;8706;48.254;16.422;2024-03-23T00:55:10;4.30;;;4.00;;
17181;SDS011;8706;48.254;16.422;2024-03-23T00:57:37;3.70;;;3.40;;
17181;SDS011;8706;48.254;16.422;2024-03-23T01:00:04;3.53;;;3.23;;
17181;SDS011;8706;48.254;16.422;2024-03-23T01:02:32;3.70;;;3.40;;
17181;SDS011;8706;48.254;16.422;2024-03-23T01:04:58;4.00;;;3.70;;
17181;SDS011;8706;48.254;16.422;2024-03-23T01:07:24;3.70;;;3.40;;
17181;SDS011;8706;48.254;16.422;2024-03-23T01:09:52;3.93;;;3.63;;
17181;SDS011;8706;48.254;16.422;2024-03-23T01:12:18;3.93;;;3.63;;
17181;SDS011;8706;48.254;16.422;2024-03-23T01:14:44;3.97;;;3.67;;
17181;SDS011;8706;48.254;16.422;2024-03-23T01:17:11;3.90;;;3.60;;
17181;SDS011;8706;48.254;16.422;2024-03-23T01:19:37;4.00;;;3.70;;
17181;SDS011;8706;48.254;16.422;2024-03-23T01:22:06;3.83;;;3.53;;
17181;SDS011;8706;48.254;16.422;2024-03-23T01:24:32;4.33;;;4.00;;
17181;SDS011;8706;48.254;16.422;2024-03-23T01:27:00;3.83;;;3.53;;
17181;SDS011;8706;48.254;16.422;2024-03-23T01:29:26;4.07;;;3.70;;
17181;SDS011;8706;48.254;16.422;2024-03-23T01:31:53;3.60;;;3.40;;
17181;SDS011;8706;48.254;16.422;2024-03-23T01:34:19;4.30;;;4.00;;
17181;SDS011;8706;48.254;16.422;2024-03-23T01:36:46;3.90;;;3.60;;
17181;SDS011;8706;48.254;16.422;2024-03-23T01:39:11;3.80;;;3.50;;
17181;SDS011;8706;48.254;16.422;2024-03-23T01:41:39;4.20;;;3.90;;
17181;SDS011;8706;48.254;16.422;2024-03-23T01:44:08;4.07;;;3.77;;
17181;SDS011;8706;48.254;16.422;2024-03-23T01:46:36;4.10;;;3.70;;
17181;SDS011;8706;48.254;16.422;2024-03-23T01:49:02;4.23;;;3.90;;
17181;SDS011;8706;48.254;16.422;2024-03-23T01:51:29;3.70;;;3.40;;
17181;SDS011;8706;48.254;16.422;2024-03-23T01:53:56;3.30;;;3.10;;
17181;SDS011;8706;48.254;16.422;2024-03-23T01:56:25;4.03;;;3.73;;
17181;SDS011;8706;48.254;16.422;2024-03-23T01:58:51;4.20;;;3.90;;
17181;SDS011;8706;48.254;16.422;2024-03-23T02:01:20;4.20;;;3.90;;
17181;SDS011;8706;48.254;16.422;2024-03-23T02:03:46;4.27;;;3.97;;
17181;SDS011;8706;48.254;16.422;2024-03-23T02:06:13;4.30;;;4.00;;
17181;SDS011;8706;48.254;16.422;2024-03-23T02:08:38;3.70;;;3.40;;
17181;SDS011;8706;48.254;16.422;2024-03-23T02:11:06;4.07;;;3.77;;
17181;SDS011;8706;48.254;16.422;2024-03-23T02:13:32;3.97;;;3.67;;
17181;SDS011;8706;48.254;16.422;2024-03-23T02:15:58;4.10;;;3.80;;
17181;SDS011;8706;48.254;16.422;2024-03-23T02:18:26;3.80;;;3.50;;
17181;SDS011;8706;48.254;16.422;2024-03-23T02:20:53;4.20;;;3.90;;
17181;SDS011;8706;48.254;16.422;2024-03-23T02:23:20;4.00;;;3.70;;
17181;SDS011;8706;48.254;16.422;2024-03-23T02:25:47;4.00;;;3.70;;
17181;SDS011;8706;48.254;16.422;2024-03-23T02:28:12;4.23;;;3.93;;
17181;SDS011;8706;48.254;16.422;2024-03-23T02:30:39;3.90;;;3.60;;
17181;SDS011;8706;48.254;16.422;2024-03-23T02:33:05;3.53;;;3.30;;
17181;SDS011;8706;48.254;16.422;2024-03-23T02:35:32;4.10;;;3.80;;
17181;SDS011;8706;48.254;16.422;2024-03-23T02:37:58;4.23;;;3.90;;
17181;SDS011;8706;48.254;16.422;2024-03-23T02:40:27;3.97;;;3.67;;
17181;SDS011;8706;48.254;16.422;2024-03-23T02:42:53;4.30;;;4.00;;
17181;SDS011;8706;48.254;16.422;2024-03-23T02:45:20;3.93;;;3.63;;
17181;SDS011;8706;48.254;16.422;2024-03-23T02:47:46;4.30;;;4.00;;
17181;SDS011;8706;48.254;16.422;2024-03-23T02:50:16;4.30;;;3.93;;
17181;SDS011;8706;48.254;16.422;2024-03-23T02:52:43;3.90;;;3.60;;
17181;SDS011;8706;48.254;16.422;2024-03-23T02:55:10;4.10;;;3.80;;
17181;SDS011;8706;48.254;16.422;2024-03-23T02:57:37;3.80;;;3.53;;
17181;SDS011;8706;48.254;16.422;2024-03-23T03:00:04;4.20;;;3.90;;
17181;SDS011;8706;48.254;16.422;2024-03-23T03:02:32;3.97;;;3.67;;
17181;SDS011;8706;48.254;16.422;2024-03-23T03:04:59;4.10;;;3.80;;
17181;SDS011;8706;48.254;16.422;2024-03-23T03:07:25;3.90;;;3.60;;
17181;SDS011;8706;48.254;16.422;2024-03-23T03:09:52;4.23;;;3.93;;
17181;SDS011;8706;48.254;16.422;2024-03-23T03:12:18;4.10;;;3.80;;
17181;SDS011;8706;48.254;16.422;2024-03-23T03:14:46;4.17;;;3.83;;
17181;SDS011;8706;48.254;16.422;2024-03-23T03:17:13;3.90;;;3.60;;
17181;SDS011;8706;48.254;16.422;2024-03-23T03:19:40;4.23;;;3.93;;
17181;SDS011;8706;48.254;16.422;2024-03-23T03:22:06;3.83;;;3.53;;
17181;SDS011;8706;48.254;16.422;2024-03-23T03:24:33;3.83;;;3.53;;
17181;SDS011;8706;48.254;16.422;2024-03-23T03:26:59;4.23;;;3.93;;
17181;SDS011;8706;48.254;16.422;2024-03-23T03:29:28;4.20;;;3.90;;
17181;SDS011;8706;48.254;16.422;2024-03-23T03:32:01;3.90;;;3.60;;
17181;SDS011;8706;48.254;16.422;2024-03-23T03:34:28;4.33;;;3.93;;
17181;SDS011;8706;48.254;16.422;2024-03-23T03:36:54;4.20;;;3.90;;
17181;SDS011;8706;48.254;16.422;2024-03-23T03:39:22;4.10;;;3.80;;
17181;SDS011;8706;48.254;16.422;2024-03-23T03:41:48;3.87;;;3.57;;
17181;SDS011;8706;48.254;16.422;2024-03-23T03:44:15;3.97;;;3.67;;
17181;SDS011;8706;48.254;16.422;2024-03-23T03:46:41;4.13;;;3.83;;
17181;SDS011;8706;48.254;16.422;2024-03-23T03:49:10;4.60;;;4.20;;
17181;SDS011;8706;48.254;16.422;2024-03-23T03:51:36;3.90;;;3.60;;
17181;SDS011;8706;48.254;16.422;2024-03-23T03:54:02;3.93;;;3.63;;
17181;SDS011;8706;48.254;16.422;2024-03-23T03:56:28;4.17;;;3.87;;
17181;SDS011;8706;48.254;16.422;2024-03-23T03:58:55;4.10;;;3.80;;
17181;SDS011;8706;48.254;16.422;2024-03-23T04:01:21;4.10;;;3.80;;
17181;SDS011;8706;48.254;16.422;2024-03-23T04:03:48;4.03;;;3.73;;
17181;SDS011;8706;48.254;16.422;2024-03-23T04:06:19;4.10;;;3.80;;
17181;SDS011;8706;48.254;16.422;2024-03-23T04:08:46;3.60;;;3.40;;
17181;SDS011;8706;48.254;16.422;2024-03-23T04:11:12;4.40;;;4.10;;
17181;SDS011;8706;48.254;16.422;2024-03-23T04:13:39;4.13;;;3.83;;
17181;SDS011;8706;48.254;16.422;2024-03-23T04:16:06;4.30;;;3.90;;
17181;SDS011;8706;48.254;16.422;2024-03-23T04:18:34;4.03;;;3.73;;
17181;SDS011;8706;48.254;16.422;2024-03-23T04:21:00;4.10;;;3.80;;
17181;SDS011;8706;48.254;16.422;2024-03-23T04:23:28;4.30;;;4.00;;
17181;SDS011;8706;48.254;16.422;2024-03-23T04:25:54;4.17;;;3.87;;
17181;SDS011;8706;48.254;16.422;2024-03-23T04:28:21;4.10;;;3.80;;
17181;SDS011;8706;48.254;16.422;2024-03-23T04:30:47;4.40;;;4.00;;
17181;SDS011;8706;48.254;16.422;2024-03-23T04:33:14;4.23;;;3.93;;
17181;SDS011;8706;48.254;16.422;2024-03-23T04:35:40;4.23;;;3.93;;
17181;SDS011;8706;48.254;16.422;2024-03-23T04:38:06;4.43;;;4.13;;
17181;SDS011;8706;48.254;16.422;2024-03-23T04:40:35;4.27;;;3.93;;
17181;SDS011;8706;48.254;16.422;2024-03-23T04:43:02;4.13;;;3.73;;
17181;SDS011;8706;48.254;16.422;2024-03-23T04:45:29;4.03;;;3.73;;
17181;SDS011;8706;48.254;16.422;2024-03-23T04:47:56;4.33;;;4.00;;
17181;SDS011;8706;48.254;16.422;2024-03-23T04:50:23;4.00;;;3.70;;
17181;SDS011;8706;48.254;16.422;2024-03-23T04:52:50;3.93;;;3.63;;
17181;SDS011;8706;48.254;16.422;2024-03-23T04:55:16;4.40;;;4.10;;
17181;SDS011;8706;48.254;16.422;2024-03-23T04:57:45;4.37;;;4.07;;
17181;SDS011;8706;48.254;16.422;2024-03-23T05:00:11;4.10;;;3.80;;
17181;SDS011;8706;48.254;16.422;2024-03-23T05:02:43;4.20;;;3.90;;
17181;SDS011;8706;48.254;16.422;2024-03-23T05:05:10;4.53;;;4.23;;
17181;SDS011;8706;48.254;16.422;2024-03-23T05:07:37;4.27;;;3.90;;
17181;SDS011;8706;48.254;16.422;2024-03-23T05:10:03;4.20;;;3.90;;
17181;SDS011;8706;48.254;16.422;2024-03-23T05:12:30;4.93;;;4.53;;
17181;SDS011;8706;48.254;16.422;2024-03-23T05:14:58;4.10;;;3.80;;
17181;SDS011;8706;48.254;16.422;2024-03-23T05:17:25;4.10;;;3.80;;
17181;SDS011;8706;48.254;16.422;2024-03-23T05:19:51;4.10;;;3.80;;
17181;SDS011;8706;48.254;16.422;2024-03-23T05:22:18;4.33;;;4.03;;
17181;SDS011;8706;48.254;16.422;2024-03-23T05:24:44;4.33;;;4.03;;
17181;SDS011;8706;48.254;16.422;2024-03-23T05:27:11;3.77;;;3.47;;
17181;SDS011;8706;48.254;16.422;2024-03-23T05:29:37;3.77;;;3.50;;
17181;SDS011;8706;48.254;16.422;2024-03-23T05:32:06;4.37;;;4.07;;
17181;SDS011;8706;48.254;16.422;2024-03-23T05:34:32;4.40;;;4.10;;
17181;SDS011;8706;48.254;16.422;2024-03-23T05:36:59;4.20;;;3.90;;
17181;SDS011;8706;48.254;16.422;2024-03-23T05:39:25;3.93;;;3.63;;
17181;SDS011;8706;48.254;16.422;2024-03-23T05:41:51;4.00;;;3.70;;
17181;SDS011;8706;48.254;16.422;2024-03-23T05:44:17;4.10;;;3.80;;
17181;SDS011;8706;48.254;16.422;2024-03-23T05:46:45;4.23;;;3.93;;
17181;SDS011;8706;48.254;16.422;2024-03-23T05:49:15;4.13;;;3.83;;
17181;SDS011;8706;48.254;16.422;2024-03-23T05:51:42;3.70;;;3.40;;
17181;SDS011;8706;48.254;16.422;2024-03-23T05:54:07;3.93;;;3.63;;
17181;SDS011;8706;48.254;16.422;2024-03-23T05:56:34;4.03;;;3.73;;
17181;SDS011;8706;48.254;16.422;2024-03-23T05:59:00;4.40;;;4.03;;
17181;SDS011;8706;48.254;16.422;2024-03-23T06:01:28;4.20;;;3.90;;
17181;SDS011;8706;48.254;16.422;2024-03-23T06:03:56;4.30;;;4.00;;
17181;SDS011;8706;48.254;16.422;2024-03-23T06:06:24;4.30;;;4.00;;
17181;SDS011;8706;48.254;16.422;2024-03-23T06:08:50;3.97;;;3.67;;
17181;SDS011;8706;48.254;16.422;2024-03-23T06:11:16;4.10;;;3.80;;
17181;SDS011;8706;48.254;16.422;2024-03-23T06:13:42;4.17;;;3.87;;
17181;SDS011;8706;48.254;16.422;2024-03-23T06:16:09;3.93;;;3.63;;
17181;SDS011;8706;48.254;16.422;2024-03-23T06:18:35;3.93;;;3.63;;
17181;SDS011;8706;48.254;16.422;2024-03-23T06:21:02;4.50;;;4.10;;
17181;SDS011;8706;48.254;16.422;2024-03-23T06:23:30;4.80;;;4.27;;
17181;SDS011;8706;48.254;16.422;2024-03-23T06:25:56;4.20;;;3.90;;
17181;SDS011;8706;48.254;16.422;2024-03-23T06:28:22;3.80;;;3.50;;
17181;SDS011;8706;48.254;16.422;2024-03-23T06:30:49;4.03;;;3.73;;
17181;SDS011;8706;48.254;16.422;2024-03-23T06:33:15;3.73;;;3.43;;
17181;SDS011;8706;48.254;16.422;2024-03-23T06:35:42;4.30;;;4.00;;
17181;SDS011;8706;48.254;16.422;2024-03-23T06:38:14;4.10;;;3.80;;
17181;SDS011;8706;48.254;16.422;2024-03-23T06:40:43;4.40;;;4.10;;
17181;SDS011;8706;48.254;16.422;2024-03-23T06:43:12;3.90;;;3.60;;
17181;SDS011;8706;48.254;16.422;2024-03-23T06:45:39;3.70;;;3.40;;
17181;SDS011;8706;48.254;16.422;2024-03-23T06:48:05;3.97;;;3.67;;
17181;SDS011;8706;48.254;16.422;2024-03-23T06:50:33;3.90;;;3.60;;
17181;SDS011;8706;48.254;16.422;2024-03-23T06:52:58;4.23;;;3.93;;
17181;SDS011;8706;48.254;16.422;2024-03-23T06:55:27;4.20;;;3.90;;
17181;SDS011;8706;48.254;16.422;2024-03-23T06:57:54;4.00;;;3.70;;
17181;SDS011;8706;48.254;16.422;2024-03-23T07:00:21;3.97;;;3.67;;
17181;SDS011;8706;48.254;16.422;2024-03-23T07:02:47;3.77;;;3.57;;
17181;SDS011;8706;48.254;16.422;2024-03-23T07:05:13;4.10;;;3.80;;
17181;SDS011;8706;48.254;16.422;2024-03-23T07:07:39;4.27;;;3.97;;
17181;SDS011;8706;48.254;16.422;2024-03-23T07:10:06;4.17;;;3.87;;
17181;SDS011;8706;48.254;16.422;2024-03-23T07:12:33;4.00;;;3.70;;
17181;SDS011;8706;48.254;16.422;2024-03-23T07:15:01;3.93;;;3.73;;
17181;SDS011;8706;48.254;16.422;2024-03-23T07:17:27;4.30;;;4.00;;
17181;SDS011;8706;48.254;16.422;2024-03-23T07:19:54;3.93;;;3.63;;
17181;SDS011;8706;48.254;16.422;2024-03-23T07:22:20;4.10;;;3.80;;
17181;SDS011;8706;48.254;16.422;2024-03-23T07:24:46;4.10;;;3.80;;
17181;SDS011;8706;48.254;16.422;2024-03-23T07:27:12;3.90;;;3.60;;
17181;SDS011;8706;48.254;16.422;2024-03-23T07:29:39;4.00;;;3.70;;
17181;SDS011;8706;48.254;16.422;2024-03-23T07:32:06;4.20;;;3.90;;
17181;SDS011;8706;48.254;16.422;2024-03-23T07:34:33;4.07;;;3.77;;
17181;SDS011;8706;48.254;16.422;2024-03-23T07:36:59;3.63;;;3.43;;
17181;SDS011;8706;48.254;16.422;2024-03-23T07:39:26;3.80;;;3.50;;
17181;SDS011;8706;48.254;16.422;2024-03-23T07:41:52;4.30;;;4.00;;
17181;SDS011;8706;48.254;16.422;2024-03-23T07:44:19;3.60;;;3.40;;
17181;SDS011;8706;48.254;16.422;2024-03-23T07:46:45;4.10;;;3.80;;
17181;SDS011;8706;48.254;16.422;2024-03-23T07:49:13;4.30;;;4.00;;
17181;SDS011;8706;48.254;16.422;2024-03-23T07:51:39;3.67;;;3.47;;
17181;SDS011;8706;48.254;16.422;2024-03-23T07:54:06;4.17;;;3.87;;
17181;SDS011;8706;48.254;16.422;2024-03-23T07:56:32;4.37;;;4.07;;
17181;SDS011;8706;48.254;16.422;2024-03-23T07:58:59;4.10;;;3.80;;
17181;SDS011;8706;48.254;16.422;2024-03-23T08:01:25;4.10;;;3.80;;
17181;SDS011;8706;48.254;16.422;2024-03-23T08:03:52;3.90;;;3.63;;
17181;SDS011;8706;48.254;16.422;2024-03-23T08:06:20;3.87;;;3.67;;
17181;SDS011;8706;48.254;16.422;2024-03-23T08:08:49;3.87;;;3.57;;
17181;SDS011;8706;48.254;16.422;2024-03-23T08:11:24;4.27;;;3.97;;
17181;SDS011;8706;48.254;16.422;2024-03-23T08:13:51;4.00;;;3.70;;
17181;SDS011;8706;48.254;16.422;2024-03-23T08:16:17;3.90;;;3.67;;
17181;SDS011;8706;48.254;16.422;2024-03-23T08:18:44;4.13;;;3.83;;
17181;SDS011;8706;48.254;16.422;2024-03-23T08:21:10;4.20;;;3.90;;
17181;SDS011;8706;48.254;16.422;2024-03-23T08:23:38;3.50;;;3.23;;
17181;SDS011;8706;48.254;16.422;2024-03-23T08:26:05;4.07;;;3.77;;
17181;SDS011;8706;48.254;16.422;2024-03-23T08:28:33;4.03;;;3.73;;
17181;SDS011;8706;48.254;16.422;2024-03-23T08:31:00;3.93;;;3.63;;
17181;SDS011;8706;48.254;16.422;2024-03-23T08:33:28;3.90;;;3.60;;
17181;SDS011;8706;48.254;16.422;2024-03-23T08:35:55;4.17;;;3.87;;
17181;SDS011;8706;48.254;16.422;2024-03-23T08:38:23;3.67;;;3.47;;
17181;SDS011;8706;48.254;16.422;2024-03-23T08:40:57;4.20;;;3.90;;
17181;SDS011;8706;48.254;16.422;2024-03-23T08:43:24;4.20;;;3.90;;
17181;SDS011;8706;48.254;16.422;2024-03-23T08:45:51;3.87;;;3.57;;
17181;SDS011;8706;48.254;16.422;2024-03-23T08:48:18;3.63;;;3.43;;
17181;SDS011;8706;48.254;16.422;2024-03-23T08:50:45;3.90;;;3.60;;
17181;SDS011;8706;48.254;16.422;2024-03-23T08:53:12;3.80;;;3.50;;
17181;SDS011;8706;48.254;16.422;2024-03-23T08:55:38;4.10;;;3.80;;
17181;SDS011;8706;48.254;16.422;2024-03-23T08:58:06;3.50;;;3.30;;
17181;SDS011;8706;48.254;16.422;2024-03-23T09:00:33;3.53;;;3.33;;
17181;SDS011;8706;48.254;16.422;2024-03-23T09:03:00;3.90;;;3.60;;
17181;SDS011;8706;48.254;16.422;2024-03-23T09:05:27;3.80;;;3.50;;
17181;SDS011;8706;48.254;16.422;2024-03-23T09:08:00;3.50;;;3.30;;
17181;SDS011;8706;48.254;16.422;2024-03-23T09:10:26;3.50;;;3.30;;
17181;SDS011;8706;48.254;16.422;2024-03-23T09:12:53;4.13;;;3.83;;
17181;SDS011;8706;48.254;16.422;2024-03-23T09:15:20;3.73;;;3.53;;
17181;SDS011;8706;48.254;16.422;2024-03-23T09:17:47;3.40;;;3.20;;
17181;SDS011;8706;48.254;16.422;2024-03-23T09:20:13;3.60;;;3.40;;
17181;SDS011;8706;48.254;16.422;2024-03-23T09:22:39;3.40;;;3.20;;
17181;SDS011;8706;48.254;16.422;2024-03-23T09:25:06;4.00;;;3.70;;
17181;SDS011;8706;48.254;16.422;2024-03-23T09:27:33;3.80;;;3.50;;
17181;SDS011;8706;48.254;16.422;2024-03-23T09:30:00;3.60;;;3.30;;
17181;SDS011;8706;48.254;16.422;2024-03-23T09:32:27;3.40;;;3.20;;
17181;SDS011;8706;48.254;16.422;2024-03-23T09:34:54;3.17;;;2.97;;
17181;SDS011;8706;48.254;16.422;2024-03-23T09:37:20;3.43;;;3.23;;
17181;SDS011;8706;48.254;16.422;2024-03-23T09:39:47;3.53;;;3.27;;
17181;SDS011;8706;48.254;16.422;2024-03-23T09:42:12;3.83;;;3.57;;
17181;SDS011;8706;48.254;16.422;2024-03-23T09:44:39;3.60;;;3.30;;
17181;SDS011;8706;48.254;16.422;2024-03-23T09:47:05;3.37;;;3.07;;
17181;SDS011;8706;48.254;16.422;2024-03-23T09:49:35;3.30;;;3.10;;
17181;SDS011;8706;48.254;16.422;2024-03-23T09:52:01;3.47;;;3.27;;
17181;SDS011;8706;48.254;16.422;2024-03-23T09:54:28;3.38;;;3.17;;
17181;SDS011;8706;48.254;16.422;2024-03-23T09:56:54;3.07;;;2.87;;
17181;SDS011;8706;48.254;16.422;2024-03-23T09:59:21;3.47;;;3.27;;
17181;SDS011;8706;48.254;16.422;2024-03-23T10:01:47;3.40;;;3.20;;
17181;SDS011;8706;48.254;16.422;2024-03-23T10:07:10;3.33;;;3.13;;
17181;SDS011;8706;48.254;16.422;2024-03-23T10:09:38;3.30;;;3.10;;
17181;SDS011;8706;48.254;16.422;2024-03-23T10:12:10;3.37;;;3.10;;
17181;SDS011;8706;48.254;16.422;2024-03-23T10:14:38;3.40;;;3.20;;
17181;SDS011;8706;48.254;16.422;2024-03-23T10:17:14;2.90;;;2.70;;
17181;SDS011;8706;48.254;16.422;2024-03-23T10:19:44;3.43;;;3.17;;
17181;SDS011;8706;48.254;16.422;2024-03-23T10:22:13;3.30;;;3.10;;
17181;SDS011;8706;48.254;16.422;2024-03-23T10:24:41;3.43;;;3.13;;
17181;SDS011;8706;48.254;16.422;2024-03-23T10:27:07;3.17;;;2.97;;
17181;SDS011;8706;48.254;16.422;2024-03-23T10:29:34;3.50;;;3.30;;
17181;SDS011;8706;48.254;16.422;2024-03-23T10:32:09;3.23;;;3.03;;
17181;SDS011;8706;48.254;16.422;2024-03-23T10:34:36;2.90;;;2.80;;
17181;SDS011;8706;48.254;16.422;2024-03-23T10:37:04;3.10;;;2.90;;
17181;SDS011;8706;48.254;16.422;2024-03-23T10:39:32;3.30;;;3.07;;
17181;SDS011;8706;48.254;16.422;2024-03-23T10:42:00;2.92;;;2.75;;
17181;SDS011;8706;48.254;16.422;2024-03-23T10:44:31;2.55;;;2.45;;
17181;SDS011;8706;48.254;16.422;2024-03-23T10:46:57;3.03;;;2.83;;
17181;SDS011;8706;48.254;16.422;2024-03-23T10:49:28;3.65;;;3.45;;
17181;SDS011;8706;48.254;16.422;2024-03-23T10:51:56;2.70;;;2.50;;
17181;SDS011;8706;48.254;16.422;2024-03-23T10:54:25;3.28;;;3.08;;
17181;SDS011;8706;48.254;16.422;2024-03-23T10:56:52;3.05;;;2.85;;
17181;SDS011;8706;48.254;16.422;2024-03-23T10:59:23;3.38;;;3.17;;
17181;SDS011;8706;48.254;16.422;2024-03-23T11:01:56;3.20;;;3.00;;
17181;SDS011;8706;48.254;16.422;2024-03-23T11:04:29;3.05;;;2.85;;
17181;SDS011;8706;48.254;16.422;2024-03-23T11:06:56;3.45;;;3.15;;
17181;SDS011;8706;48.254;16.422;2024-03-23T11:12:29;2.80;;;2.60;;
17181;SDS011;8706;48.254;16.422;2024-03-23T11:15:01;2.88;;;2.67;;
17181;SDS011;8706;48.254;16.422;2024-03-23T11:17:28;2.88;;;2.70;;
17181;SDS011;8706;48.254;16.422;2024-03-23T11:19:56;2.67;;;2.47;;
17181;SDS011;8706;48.254;16.422;2024-03-23T11:25:16;2.83;;;2.63;;
17181;SDS011;8706;48.254;16.422;2024-03-23T11:27:43;2.80;;;2.60;;
17181;SDS011;8706;48.254;16.422;2024-03-23T11:30:15;2.90;;;2.70;;
17181;SDS011;8706;48.254;16.422;2024-03-23T11:32:42;3.00;;;2.80;;
17181;SDS011;8706;48.254;16.422;2024-03-23T11:35:09;2.80;;;2.60;;
17181;SDS011;8706;48.254;16.422;2024-03-23T11:37:36;3.50;;;3.30;;
17181;SDS011;8706;48.254;16.422;2024-03-23T11:40:21;3.10;;;2.90;;
17181;SDS011;8706;48.254;16.422;2024-03-23T11:42:52;3.10;;;2.90;;
17181;SDS011;8706;48.254;16.422;2024-03-23T11:45:21;3.10;;;2.90;;
17181;SDS011;8706;48.254;16.422;2024-03-23T11:47:47;3.20;;;2.97;;
17181;SDS011;8706;48.254;16.422;2024-03-23T11:50:19;3.00;;;2.80;;
17181;SDS011;8706;48.254;16.422;2024-03-23T11:52:45;3.50;;;3.20;;
17181;SDS011;8706;48.254;16.422;2024-03-23T11:55:12;3.23;;;3.03;;
17181;SDS011;8706;48.254;16.422;2024-03-23T11:57:39;2.50;;;2.40;;
17181;SDS011;8706;48.254;16.422;2024-03-23T12:00:20;3.03;;;2.83;;
17181;SDS011;8706;48.254;16.422;2024-03-23T12:02:46;2.80;;;2.60;;
17181;SDS011;8706;48.254;16.422;2024-03-23T12:05:14;3.00;;;2.80;;
17181;SDS011;8706;48.254;16.422;2024-03-23T12:07:40;3.23;;;3.03;;
17181;SDS011;8706;48.254;16.422;2024-03-23T12:10:07;3.00;;;2.80;;
17181;SDS011;8706;48.254;16.422;2024-03-23T12:12:33;2.80;;;2.60;;
17181;SDS011;8706;48.254;16.422;2024-03-23T12:15:02;3.23;;;3.03;;
17181;SDS011;8706;48.254;16.422;2024-03-23T12:17:29;3.20;;;3.00;;
17181;SDS011;8706;48.254;16.422;2024-03-23T12:19:56;3.10;;;2.90;;
17181;SDS011;8706;48.254;16.422;2024-03-23T12:22:22;2.97;;;2.77;;
17181;SDS011;8706;48.254;16.422;2024-03-23T12:24:49;3.17;;;2.97;;
17181;SDS011;8706;48.254;16.422;2024-03-23T12:27:15;2.70;;;2.60;;
17181;SDS011;8706;48.254;16.422;2024-03-23T12:29:42;2.80;;;2.60;;
17181;SDS011;8706;48.254;16.422;2024-03-23T12:32:10;2.70;;;2.50;;
17181;SDS011;8706;48.254;16.422;2024-03-23T12:34:36;3.00;;;2.80;;
17181;SDS011;8706;48.254;16.422;2024-03-23T12:37:02;2.70;;;2.50;;
17181;SDS011;8706;48.254;16.422;2024-03-23T12:39:31;2.50;;;2.30;;
17181;SDS011;8706;48.254;16.422;2024-03-23T12:41:57;3.00;;;2.80;;
17181;SDS011;8706;48.254;16.422;2024-03-23T12:44:23;2.60;;;2.50;;
17181;SDS011;8706;48.254;16.422;2024-03-23T12:46:49;2.40;;;2.30;;
17181;SDS011;8706;48.254;16.422;2024-03-23T12:49:17;3.10;;;2.90;;
17181;SDS011;8706;48.254;16.422;2024-03-23T12:51:47;2.80;;;2.60;;
17181;SDS011;8706;48.254;16.422;2024-03-23T12:54:19;2.70;;;2.50;;
17181;SDS011;8706;48.254;16.422;2024-03-23T12:56:45;2.80;;;2.60;;
17181;SDS011;8706;48.254;16.422;2024-03-23T12:59:12;2.70;;;2.50;;
17181;SDS011;8706;48.254;16.422;2024-03-23T13:01:38;2.80;;;2.60;;
17181;SDS011;8706;48.254;16.422;2024-03-23T13:04:05;2.90;;;2.70;;
17181;SDS011;8706;48.254;16.422;2024-03-23T13:06:32;3.30;;;3.10;;
17181;SDS011;8706;48.254;16.422;2024-03-23T13:08:59;3.10;;;2.90;;
17181;SDS011;8706;48.254;16.422;2024-03-23T13:11:26;2.27;;;2.17;;
17181;SDS011;8706;48.254;16.422;2024-03-23T13:13:53;3.10;;;2.90;;
17181;SDS011;8706;48.254;16.422;2024-03-23T13:16:19;2.57;;;2.37;;
17181;SDS011;8706;48.254;16.422;2024-03-23T13:18:46;2.60;;;2.50;;
17181;SDS011;8706;48.254;16.422;2024-03-23T13:21:12;3.07;;;2.87;;
17181;SDS011;8706;48.254;16.422;2024-03-23T13:23:40;2.90;;;2.70;;
17181;SDS011;8706;48.254;16.422;2024-03-23T13:26:07;2.50;;;2.40;;
17181;SDS011;8706;48.254;16.422;2024-03-23T13:28:34;2.70;;;2.50;;
17181;SDS011;8706;48.254;16.422;2024-03-23T13:31:01;2.50;;;2.30;;
17181;SDS011;8706;48.254;16.422;2024-03-23T13:33:28;2.63;;;2.47;;
17181;SDS011;8706;48.254;16.422;2024-03-23T13:35:55;2.40;;;2.30;;
17181;SDS011;8706;48.254;16.422;2024-03-23T13:38:22;2.80;;;2.60;;
17181;SDS011;8706;48.254;16.422;2024-03-23T13:40:54;2.50;;;2.40;;
17181;SDS011;8706;48.254;16.422;2024-03-23T13:43:21;2.57;;;2.47;;
17181;SDS011;8706;48.254;16.422;2024-03-23T13:45:49;2.63;;;2.47;;
17181;SDS011;8706;48.254;16.422;2024-03-23T13:48:20;2.60;;;2.40;;
17181;SDS011;8706;48.254;16.422;2024-03-23T13:50:47;2.40;;;2.30;;
17181;SDS011;8706;48.254;16.422;2024-03-23T13:53:14;3.30;;;3.00;;
17181;SDS011;8706;48.254;16.422;2024-03-23T13:55:45;2.40;;;2.20;;
17181;SDS011;8706;48.254;16.422;2024-03-23T13:58:15;2.70;;;2.60;;
17181;SDS011;8706;48.254;16.422;2024-03-23T14:00:41;2.60;;;2.43;;
17181;SDS011;8706;48.254;16.422;2024-03-23T14:03:09;2.63;;;2.43;;
17181;SDS011;8706;48.254;16.422;2024-03-23T14:05:34;2.43;;;2.23;;
17181;SDS011;8706;48.254;16.422;2024-03-23T14:08:03;2.90;;;2.70;;
17181;SDS011;8706;48.254;16.422;2024-03-23T14:10:30;2.47;;;2.27;;
17181;SDS011;8706;48.254;16.422;2024-03-23T14:12:57;2.30;;;2.20;;
17181;SDS011;8706;48.254;16.422;2024-03-23T14:15:26;2.83;;;2.73;;
17181;SDS011;8706;48.254;16.422;2024-03-23T14:17:53;2.90;;;2.70;;
17181;SDS011;8706;48.254;16.422;2024-03-23T14:20:19;3.37;;;2.13;;
17181;SDS011;8706;48.254;16.422;2024-03-23T14:22:46;2.10;;;2.00;;
17181;SDS011;8706;48.254;16.422;2024-03-23T14:25:12;2.10;;;2.00;;
17181;SDS011;8706;48.254;16.422;2024-03-23T14:27:39;2.30;;;2.10;;
17181;SDS011;8706;48.254;16.422;2024-03-23T14:30:06;2.50;;;2.30;;
17181;SDS011;8706;48.254;16.422;2024-03-23T14:32:34;2.60;;;2.50;;
17181;SDS011;8706;48.254;16.422;2024-03-23T14:35:02;2.17;;;2.00;;
17181;SDS011;8706;48.254;16.422;2024-03-23T14:37:29;2.23;;;2.13;;
17181;SDS011;8706;48.254;16.422;2024-03-23T14:39:56;2.50;;;2.40;;
17181;SDS011;8706;48.254;16.422;2024-03-23T14:42:24;2.13;;;2.03;;
17181;SDS011;8706;48.254;16.422;2024-03-23T14:44:51;2.00;;;1.90;;
17181;SDS011;8706;48.254;16.422;2024-03-23T14:47:18;2.17;;;2.00;;
17181;SDS011;8706;48.254;16.422;2024-03-23T14:49:46;2.50;;;2.30;;
17181;SDS011;8706;48.254;16.422;2024-03-23T14:52:15;2.07;;;1.97;;
17181;SDS011;8706;48.254;16.422;2024-03-23T14:54:41;1.87;;;1.77;;
17181;SDS011;8706;48.254;16.422;2024-03-23T14:57:08;2.10;;;2.00;;
17181;SDS011;8706;48.254;16.422;2024-03-23T14:59:34;2.10;;;2.00;;
17181;SDS011;8706;48.254;16.422;2024-03-23T15:02:03;2.10;;;2.00;;
17181;SDS011;8706;48.254;16.422;2024-03-23T15:04:29;1.93;;;1.83;;
17181;SDS011;8706;48.254;16.422;2024-03-23T15:06:57;2.47;;;2.27;;
17181;SDS011;8706;48.254;16.422;2024-03-23T15:09:23;2.10;;;2.00;;
17181;SDS011;8706;48.254;16.422;2024-03-23T15:11:50;2.00;;;1.90;;
17181;SDS011;8706;48.254;16.422;2024-03-23T15:14:16;2.00;;;1.90;;
17181;SDS011;8706;48.254;16.422;2024-03-23T15:16:42;2.00;;;1.90;;
17181;SDS011;8706;48.254;16.422;2024-03-23T15:19:08;2.20;;;2.10;;
17181;SDS011;8706;48.254;16.422;2024-03-23T15:21:35;2.03;;;1.93;;
17181;SDS011;8706;48.254;16.422;2024-03-23T15:24:03;2.10;;;2.00;;
17181;SDS011;8706;48.254;16.422;2024-03-23T15:26:30;2.10;;;2.00;;
17181;SDS011;8706;48.254;16.422;2024-03-23T15:28:56;2.00;;;1.90;;
17181;SDS011;8706;48.254;16.422;2024-03-23T15:31:41;2.03;;;1.93;;
17181;SDS011;8706;48.254;16.422;2024-03-23T15:34:07;2.20;;;2.10;;
17181;SDS011;8706;48.254;16.422;2024-03-23T15:36:35;2.23;;;2.13;;
17181;SDS011;8706;48.254;16.422;2024-03-23T15:39:04;2.07;;;1.97;;
17181;SDS011;8706;48.254;16.422;2024-03-23T15:41:32;2.03;;;1.93;;
17181;SDS011;8706;48.254;16.422;2024-03-23T15:44:00;2.10;;;2.00;;
17181;SDS011;8706;48.254;16.422;2024-03-23T15:46:27;2.40;;;2.30;;
17181;SDS011;8706;48.254;16.422;2024-03-23T15:48:53;1.80;;;1.70;;